sensor_id;sensor_type;location;lat;lon;timestamp;pressure;altitude;pressure_sealevel;temperature;humidity
60583;BME280;46415;47.536;19.066;2023-07-30T00:01:58;-18816.53;;;21.71;92.52
60583;BME280;46415;47.536;19.066;2023-07-30T00:05:02;-18817.19;;;21.74;92.71
60583;BME280;46415;47.536;19.066;2023-07-30T00:08:04;-18815.84;;;21.69;92.66
60583;BME280;46415;47.536;19.066;2023-07-30T00:11:07;-18814.75;;;21.65;93.59
60583;BME280;46415;47.536;19.066;2023-07-30T00:14:09;-18816.13;;;21.70;93.10
60583;BME280;46415;47.536;19.066;2023-07-30T00:17:12;-18813.53;;;21.60;94.49
60583;BME280;46415;47.536;19.066;2023-07-30T00:20:14;-18812.19;;;21.55;94.85
60583;BME280;46415;47.536;19.066;2023-07-30T00:23:17;-18810.56;;;21.49;95.57
60583;BME280;46415;47.536;19.066;2023-07-30T00:26:19;-18809.19;;;21.44;96.49
60583;BME280;46415;47.536;19.066;2023-07-30T00:29:22;-18808.66;;;21.42;94.96
60583;BME280;46415;47.536;19.066;2023-07-30T00:32:25;-18808.78;;;21.42;95.16
60583;BME280;46415;47.536;19.066;2023-07-30T00:35:28;-18808.78;;;21.42;95.87
60583;BME280;46415;47.536;19.066;2023-07-30T00:38:34;-18807.97;;;21.39;93.72
60583;BME280;46415;47.536;19.066;2023-07-30T00:41:36;-18810.28;;;21.48;92.05
60583;BME280;46415;47.536;19.066;2023-07-30T00:44:40;-18814.63;;;21.64;89.20
60583;BME280;46415;47.536;19.066;2023-07-30T00:47:42;-18817.59;;;21.75;87.51
60583;BME280;46415;47.536;19.066;2023-07-30T00:50:45;-18819.22;;;21.81;87.10
60583;BME280;46415;47.536;19.066;2023-07-30T00:53:48;-18820.72;;;21.87;86.97
60583;BME280;46415;47.536;19.066;2023-07-30T00:56:51;-18821.81;;;21.91;86.82
60583;BME280;46415;47.536;19.066;2023-07-30T00:59:55;-18823.16;;;21.96;86.30
60583;BME280;46415;47.536;19.066;2023-07-30T01:02:58;-18823.16;;;21.96;86.70
60583;BME280;46415;47.536;19.066;2023-07-30T01:06:01;-18822.91;;;21.95;86.91
60583;BME280;46415;47.536;19.066;2023-07-30T01:09:04;-18821.13;;;21.88;87.24
60583;BME280;46415;47.536;19.066;2023-07-30T01:12:07;-18819.63;;;21.83;88.28
60583;BME280;46415;47.536;19.066;2023-07-30T01:15:10;-18818.81;;;21.80;88.89
60583;BME280;46415;47.536;19.066;2023-07-30T01:18:13;-18819.38;;;21.82;88.89
60583;BME280;46415;47.536;19.066;2023-07-30T01:21:15;-18818.16;;;21.77;89.43
60583;BME280;46415;47.536;19.066;2023-07-30T01:24:18;-18817.19;;;21.74;89.56
60583;BME280;46415;47.536;19.066;2023-07-30T01:27:39;-18817.88;;;21.76;89.78
60583;BME280;46415;47.536;19.066;2023-07-30T01:30:43;-18817.75;;;21.76;89.74
60583;BME280;46415;47.536;19.066;2023-07-30T01:33:48;-18818.97;;;21.80;89.95
60583;BME280;46415;47.536;19.066;2023-07-30T01:36:53;-18819.78;;;21.83;89.46
60583;BME280;46415;47.536;19.066;2023-07-30T01:39:58;-18819.78;;;21.83;89.77
60583;BME280;46415;47.536;19.066;2023-07-30T01:43:02;-18823.03;;;21.95;89.38
60583;BME280;46415;47.536;19.066;2023-07-30T01:46:04;-18820.31;;;21.85;90.27
60583;BME280;46415;47.536;19.066;2023-07-30T01:49:07;-18818.16;;;21.77;91.07
60583;BME280;46415;47.536;19.066;2023-07-30T01:52:09;-18817.19;;;21.74;91.56
60583;BME280;46415;47.536;19.066;2023-07-30T01:55:13;-18815.97;;;21.69;93.35
60583;BME280;46415;47.536;19.066;2023-07-30T01:58:15;-18816.94;;;21.73;92.27
60583;BME280;46415;47.536;19.066;2023-07-30T02:01:18;-18819.91;;;21.84;90.27
60583;BME280;46415;47.536;19.066;2023-07-30T02:04:21;-18818.56;;;21.79;90.95
60583;BME280;46415;47.536;19.066;2023-07-30T02:07:23;-18818.81;;;21.80;91.19
60583;BME280;46415;47.536;19.066;2023-07-30T02:10:26;-18818.00;;;21.77;90.98
60583;BME280;46415;47.536;19.066;2023-07-30T02:13:28;-18815.16;;;21.66;91.99
60583;BME280;46415;47.536;19.066;2023-07-30T02:16:31;-18812.47;;;21.56;92.38
60583;BME280;46415;47.536;19.066;2023-07-30T02:19:34;-18811.50;;;21.52;93.06
60583;BME280;46415;47.536;19.066;2023-07-30T02:22:36;-18811.38;;;21.52;92.94
60583;BME280;46415;47.536;19.066;2023-07-30T02:25:39;-18809.59;;;21.45;93.58
60583;BME280;46415;47.536;19.066;2023-07-30T02:28:41;-18809.34;;;21.44;93.84
60583;BME280;46415;47.536;19.066;2023-07-30T02:31:44;-18810.41;;;21.48;94.06
60583;BME280;46415;47.536;19.066;2023-07-30T02:34:47;-18809.59;;;21.45;93.95
60583;BME280;46415;47.536;19.066;2023-07-30T02:37:49;-18810.00;;;21.47;93.39
60583;BME280;46415;47.536;19.066;2023-07-30T02:40:52;-18809.47;;;21.45;93.80
60583;BME280;46415;47.536;19.066;2023-07-30T02:43:54;-18806.91;;;21.35;94.32
60583;BME280;46415;47.536;19.066;2023-07-30T02:46:57;-18806.09;;;21.32;95.29
60583;BME280;46415;47.536;19.066;2023-07-30T02:49:59;-18804.06;;;21.25;95.97
60583;BME280;46415;47.536;19.066;2023-07-30T02:53:02;-18802.28;;;21.18;96.25
60583;BME280;46415;47.536;19.066;2023-07-30T02:56:05;-18802.16;;;21.17;97.11
60583;BME280;46415;47.536;19.066;2023-07-30T02:59:07;-18800.94;;;21.13;97.96
60583;BME280;46415;47.536;19.066;2023-07-30T03:02:10;-18799.84;;;21.09;98.21
60583;BME280;46415;47.536;19.066;2023-07-30T03:05:12;-18798.22;;;21.03;98.20
60583;BME280;46415;47.536;19.066;2023-07-30T03:08:15;-18797.41;;;21.00;98.38
60583;BME280;46415;47.536;19.066;2023-07-30T03:11:17;-18797.25;;;20.99;98.16
60583;BME280;46415;47.536;19.066;2023-07-30T03:14:20;-18795.50;;;20.93;98.97
60583;BME280;46415;47.536;19.066;2023-07-30T03:17:23;-18795.22;;;20.92;98.85
60583;BME280;46415;47.536;19.066;2023-07-30T03:20:25;-18794.16;;;20.88;100.00
60583;BME280;46415;47.536;19.066;2023-07-30T03:23:29;-18792.66;;;20.82;100.00
60583;BME280;46415;47.536;19.066;2023-07-30T03:26:31;-18791.16;;;20.76;100.00
60583;BME280;46415;47.536;19.066;2023-07-30T03:29:34;-18790.34;;;20.73;100.00
60583;BME280;46415;47.536;19.066;2023-07-30T03:32:36;-18790.06;;;20.72;100.00
60583;BME280;46415;47.536;19.066;2023-07-30T03:35:40;-18789.94;;;20.72;100.00
60583;BME280;46415;47.536;19.066;2023-07-30T03:38:43;-18789.81;;;20.71;100.00
60583;BME280;46415;47.536;19.066;2023-07-30T03:41:45;-18790.47;;;20.74;100.00
60583;BME280;46415;47.536;19.066;2023-07-30T03:44:48;-18793.88;;;20.87;100.00
60583;BME280;46415;47.536;19.066;2023-07-30T03:47:50;-18794.81;;;20.90;100.00
60583;BME280;46415;47.536;19.066;2023-07-30T03:50:53;-18796.03;;;20.95;100.00
60583;BME280;46415;47.536;19.066;2023-07-30T03:53:56;-18796.59;;;20.97;100.00
60583;BME280;46415;47.536;19.066;2023-07-30T03:56:58;-18799.56;;;21.08;100.00
60583;BME280;46415;47.536;19.066;2023-07-30T04:00:01;-18802.00;;;21.17;100.00
60583;BME280;46415;47.536;19.066;2023-07-30T04:03:15;-18802.69;;;21.20;100.00
60583;BME280;46415;47.536;19.066;2023-07-30T04:06:18;-18802.97;;;21.21;100.00
60583;BME280;46415;47.536;19.066;2023-07-30T04:09:20;-18805.41;;;21.30;100.00
60583;BME280;46415;47.536;19.066;2023-07-30T04:12:23;-18805.53;;;21.30;100.00
60583;BME280;46415;47.536;19.066;2023-07-30T04:15:25;-18810.41;;;21.48;99.69
60583;BME280;46415;47.536;19.066;2023-07-30T04:18:28;-18812.03;;;21.54;98.30
60583;BME280;46415;47.536;19.066;2023-07-30T04:21:30;-18814.09;;;21.62;95.81
60583;BME280;46415;47.536;19.066;2023-07-30T04:24:33;-18817.06;;;21.73;94.72
60583;BME280;46415;47.536;19.066;2023-07-30T04:27:36;-18816.94;;;21.73;95.89
60583;BME280;46415;47.536;19.066;2023-07-30T04:30:39;-18817.59;;;21.75;93.90
60583;BME280;46415;47.536;19.066;2023-07-30T04:33:41;-18820.72;;;21.87;93.27
60583;BME280;46415;47.536;19.066;2023-07-30T04:36:46;-18820.44;;;21.86;93.63
60583;BME280;46415;47.536;19.066;2023-07-30T04:39:49;-18822.06;;;21.92;94.25
60583;BME280;46415;47.536;19.066;2023-07-30T04:42:52;-18825.06;;;22.03;92.62
60583;BME280;46415;47.536;19.066;2023-07-30T04:45:56;-18827.50;;;22.12;92.44
60583;BME280;46415;47.536;19.066;2023-07-30T04:49:01;-18828.31;;;22.15;94.00
60583;BME280;46415;47.536;19.066;2023-07-30T04:52:04;-18829.81;;;22.21;94.08
60583;BME280;46415;47.536;19.066;2023-07-30T04:55:07;-18832.09;;;22.29;91.09
60583;BME280;46415;47.536;19.066;2023-07-30T04:58:09;-18832.91;;;22.32;91.91
60583;BME280;46415;47.536;19.066;2023-07-30T05:01:12;-18833.88;;;22.36;91.32
60583;BME280;46415;47.536;19.066;2023-07-30T05:04:15;-18836.84;;;22.47;90.54
60583;BME280;46415;47.536;19.066;2023-07-30T05:07:20;-18836.56;;;22.46;91.41
60583;BME280;46415;47.536;19.066;2023-07-30T05:10:22;-18838.06;;;22.52;91.86
60583;BME280;46415;47.536;19.066;2023-07-30T05:13:25;-18838.75;;;22.54;90.89
60583;BME280;46415;47.536;19.066;2023-07-30T05:16:27;-18839.97;;;22.59;91.74
60583;BME280;46415;47.536;19.066;2023-07-30T05:19:30;-18840.78;;;22.62;91.92
60583;BME280;46415;47.536;19.066;2023-07-30T05:22:34;-18839.69;;;22.58;91.70
60583;BME280;46415;47.536;19.066;2023-07-30T05:25:36;-18840.22;;;22.60;92.89
60583;BME280;46415;47.536;19.066;2023-07-30T05:28:39;-18840.91;;;22.62;91.61
60583;BME280;46415;47.536;19.066;2023-07-30T05:31:41;-18844.03;;;22.74;91.62
60583;BME280;46415;47.536;19.066;2023-07-30T05:34:44;-18845.66;;;22.80;92.22
60583;BME280;46415;47.536;19.066;2023-07-30T05:37:46;-18848.34;;;22.90;91.40
60583;BME280;46415;47.536;19.066;2023-07-30T05:40:49;-18848.22;;;22.90;90.58
60583;BME280;46415;47.536;19.066;2023-07-30T05:43:52;-18849.31;;;22.94;90.66
60583;BME280;46415;47.536;19.066;2023-07-30T05:46:54;-18850.66;;;22.99;90.78
60583;BME280;46415;47.536;19.066;2023-07-30T05:49:57;-18853.78;;;23.10;87.78
60583;BME280;46415;47.536;19.066;2023-07-30T05:52:59;-18855.41;;;23.16;88.45
60583;BME280;46415;47.536;19.066;2023-07-30T05:56:03;-18854.44;;;23.13;88.99
60583;BME280;46415;47.536;19.066;2023-07-30T05:59:06;-18855.66;;;23.17;88.43
60583;BME280;46415;47.536;19.066;2023-07-30T06:02:08;-18859.19;;;23.31;88.87
60583;BME280;46415;47.536;19.066;2023-07-30T06:05:11;-18862.16;;;23.42;87.53
60583;BME280;46415;47.536;19.066;2023-07-30T06:08:13;-18864.88;;;23.52;87.11
60583;BME280;46415;47.536;19.066;2023-07-30T06:11:16;-18867.03;;;23.60;86.48
60583;BME280;46415;47.536;19.066;2023-07-30T06:14:18;-18870.28;;;23.72;86.32
60583;BME280;46415;47.536;19.066;2023-07-30T06:17:21;-18873.00;;;23.82;86.37
60583;BME280;46415;47.536;19.066;2023-07-30T06:20:24;-18877.84;;;24.00;86.05
60583;BME280;46415;47.536;19.066;2023-07-30T06:23:26;-18880.16;;;24.09;85.14
60583;BME280;46415;47.536;19.066;2023-07-30T06:26:29;-18882.19;;;24.17;83.30
60583;BME280;46415;47.536;19.066;2023-07-30T06:29:31;-18886.38;;;24.32;83.36
60583;BME280;46415;47.536;19.066;2023-07-30T06:32:34;-18888.81;;;24.42;82.45
60583;BME280;46415;47.536;19.066;2023-07-30T06:35:36;-18889.75;;;24.45;82.28
60583;BME280;46415;47.536;19.066;2023-07-30T06:38:39;-18891.91;;;24.53;81.48
60583;BME280;46415;47.536;19.066;2023-07-30T06:41:42;-18897.19;;;24.73;81.63
60583;BME280;46415;47.536;19.066;2023-07-30T06:44:44;-18902.19;;;24.92;81.63
60583;BME280;46415;47.536;19.066;2023-07-30T06:47:47;-18906.78;;;25.09;78.72
60583;BME280;46415;47.536;19.066;2023-07-30T06:50:49;-18911.09;;;25.25;76.94
60583;BME280;46415;47.536;19.066;2023-07-30T06:53:52;-18913.53;;;25.34;77.51
60583;BME280;46415;47.536;19.066;2023-07-30T06:56:55;-18917.59;;;25.49;76.04
60583;BME280;46415;47.536;19.066;2023-07-30T06:59:57;-18922.19;;;25.67;74.73
60583;BME280;46415;47.536;19.066;2023-07-30T07:03:00;-18919.06;;;25.55;75.74
60583;BME280;46415;47.536;19.066;2023-07-30T07:06:03;-18916.22;;;25.44;74.63
60583;BME280;46415;47.536;19.066;2023-07-30T07:09:05;-18911.25;;;25.26;76.46
60583;BME280;46415;47.536;19.066;2023-07-30T07:12:08;-18905.16;;;25.03;77.90
60583;BME280;46415;47.536;19.066;2023-07-30T07:15:10;-18900.97;;;24.87;79.04
60583;BME280;46415;47.536;19.066;2023-07-30T07:18:13;-18895.16;;;24.65;79.45
60583;BME280;46415;47.536;19.066;2023-07-30T07:21:15;-18894.34;;;24.62;80.49
60583;BME280;46415;47.536;19.066;2023-07-30T07:24:18;-18890.56;;;24.48;81.68
60583;BME280;46415;47.536;19.066;2023-07-30T07:27:21;-18885.16;;;24.28;84.01
60583;BME280;46415;47.536;19.066;2023-07-30T07:30:25;-18878.66;;;24.04;88.47
60583;BME280;46415;47.536;19.066;2023-07-30T07:33:28;-18854.84;;;23.14;94.92
60583;BME280;46415;47.536;19.066;2023-07-30T07:36:30;-18829.41;;;22.19;100.00
60583;BME280;46415;47.536;19.066;2023-07-30T07:39:33;-18815.03;;;21.66;100.00
60583;BME280;46415;47.536;19.066;2023-07-30T07:42:36;-18809.47;;;21.45;100.00
60583;BME280;46415;47.536;19.066;2023-07-30T07:45:38;-18809.34;;;21.44;100.00
60583;BME280;46415;47.536;19.066;2023-07-30T07:48:41;-18806.63;;;21.34;100.00
60583;BME280;46415;47.536;19.066;2023-07-30T07:51:43;-18805.28;;;21.29;100.00
60583;BME280;46415;47.536;19.066;2023-07-30T07:54:46;-18804.06;;;21.25;100.00
60583;BME280;46415;47.536;19.066;2023-07-30T07:57:49;-18804.84;;;21.28;100.00
60583;BME280;46415;47.536;19.066;2023-07-30T08:00:54;-18806.34;;;21.33;100.00
60583;BME280;46415;47.536;19.066;2023-07-30T08:03:56;-18806.91;;;21.35;100.00
60583;BME280;46415;47.536;19.066;2023-07-30T08:06:59;-18806.34;;;21.33;100.00
60583;BME280;46415;47.536;19.066;2023-07-30T08:10:05;-18806.09;;;21.32;100.00
60583;BME280;46415;47.536;19.066;2023-07-30T08:13:08;-18806.09;;;21.32;100.00
60583;BME280;46415;47.536;19.066;2023-07-30T08:16:11;-18804.72;;;21.27;100.00
60583;BME280;46415;47.536;19.066;2023-07-30T08:19:13;-18802.41;;;21.18;100.00
60583;BME280;46415;47.536;19.066;2023-07-30T08:22:16;-18800.66;;;21.12;100.00
60583;BME280;46415;47.536;19.066;2023-07-30T08:25:18;-18797.41;;;21.00;100.00
60583;BME280;46415;47.536;19.066;2023-07-30T08:28:21;-18783.28;;;20.47;100.00
60583;BME280;46415;47.536;19.066;2023-07-30T08:31:24;-18774.31;;;20.14;100.00
60583;BME280;46415;47.536;19.066;2023-07-30T08:34:26;-18768.22;;;19.91;100.00
60583;BME280;46415;47.536;19.066;2023-07-30T08:37:29;-18765.22;;;19.80;100.00
60583;BME280;46415;47.536;19.066;2023-07-30T08:40:32;-18762.66;;;19.70;100.00
60583;BME280;46415;47.536;19.066;2023-07-30T08:43:34;-18756.41;;;19.47;100.00
60583;BME280;46415;47.536;19.066;2023-07-30T08:46:37;-18756.53;;;19.47;100.00
60583;BME280;46415;47.536;19.066;2023-07-30T08:49:39;-18756.81;;;19.48;100.00
60583;BME280;46415;47.536;19.066;2023-07-30T08:52:42;-18759.38;;;19.58;100.00
60583;BME280;46415;47.536;19.066;2023-07-30T08:55:44;-18758.84;;;19.56;100.00
60583;BME280;46415;47.536;19.066;2023-07-30T08:58:47;-18759.38;;;19.58;100.00
60583;BME280;46415;47.536;19.066;2023-07-30T09:01:53;-18760.06;;;19.61;100.00
60583;BME280;46415;47.536;19.066;2023-07-30T09:04:57;-18756.69;;;19.48;100.00
60583;BME280;46415;47.536;19.066;2023-07-30T09:08:00;-18757.50;;;19.51;100.00
60583;BME280;46415;47.536;19.066;2023-07-30T09:11:10;-18760.19;;;19.61;100.00
60583;BME280;46415;47.536;19.066;2023-07-30T09:14:13;-18762.94;;;19.71;100.00
60583;BME280;46415;47.536;19.066;2023-07-30T09:17:18;-18762.50;;;19.70;100.00
60583;BME280;46415;47.536;19.066;2023-07-30T09:20:20;-18764.41;;;19.77;100.00
60583;BME280;46415;47.536;19.066;2023-07-30T09:23:23;-18767.00;;;19.86;100.00
60583;BME280;46415;47.536;19.066;2023-07-30T09:26:26;-18769.56;;;19.96;100.00
60583;BME280;46415;47.536;19.066;2023-07-30T09:29:29;-18771.06;;;20.02;100.00
60583;BME280;46415;47.536;19.066;2023-07-30T09:32:33;-18773.50;;;20.11;100.00
60583;BME280;46415;47.536;19.066;2023-07-30T09:35:36;-18771.88;;;20.05;100.00
60583;BME280;46415;47.536;19.066;2023-07-30T09:38:39;-18774.06;;;20.13;100.00
60583;BME280;46415;47.536;19.066;2023-07-30T09:41:42;-18778.66;;;20.30;100.00
60583;BME280;46415;47.536;19.066;2023-07-30T09:44:46;-18777.72;;;20.26;100.00
60583;BME280;46415;47.536;19.066;2023-07-30T09:47:49;-18777.31;;;20.25;100.00
60583;BME280;46415;47.536;19.066;2023-07-30T09:50:52;-18777.84;;;20.27;100.00
60583;BME280;46415;47.536;19.066;2023-07-30T09:53:56;-18778.94;;;20.31;100.00
60583;BME280;46415;47.536;19.066;2023-07-30T09:56:58;-18784.78;;;20.53;100.00
60583;BME280;46415;47.536;19.066;2023-07-30T10:00:02;-18788.44;;;20.66;100.00
60583;BME280;46415;47.536;19.066;2023-07-30T10:03:06;-18789.00;;;20.68;100.00
60583;BME280;46415;47.536;19.066;2023-07-30T10:06:09;-18789.53;;;20.70;100.00
60583;BME280;46415;47.536;19.066;2023-07-30T10:09:14;-18795.22;;;20.92;100.00
60583;BME280;46415;47.536;19.066;2023-07-30T10:12:20;-18795.78;;;20.94;100.00
60583;BME280;46415;47.536;19.066;2023-07-30T10:15:23;-18792.66;;;20.82;100.00
60583;BME280;46415;47.536;19.066;2023-07-30T10:18:47;-18789.81;;;20.71;100.00
60583;BME280;46415;47.536;19.066;2023-07-30T10:22:19;-18787.09;;;20.61;100.00
60583;BME280;46415;47.536;19.066;2023-07-30T10:25:26;-18786.81;;;20.60;100.00
60583;BME280;46415;47.536;19.066;2023-07-30T10:31:38;-18781.53;;;20.41;100.00
60583;BME280;46415;47.536;19.066;2023-07-30T10:34:43;-18777.31;;;20.25;100.00
60583;BME280;46415;47.536;19.066;2023-07-30T10:37:46;-18778.41;;;20.29;100.00
60583;BME280;46415;47.536;19.066;2023-07-30T10:41:08;-18779.91;;;20.34;100.00
60583;BME280;46415;47.536;19.066;2023-07-30T10:44:45;-18780.44;;;20.36;100.00
60583;BME280;46415;47.536;19.066;2023-07-30T10:47:40;-18781.38;;;20.40;100.00
60583;BME280;46415;47.536;19.066;2023-07-30T10:50:43;-18784.50;;;20.52;100.00
60583;BME280;46415;47.536;19.066;2023-07-30T10:53:50;-18784.25;;;20.51;100.00
60583;BME280;46415;47.536;19.066;2023-07-30T10:56:53;-18785.19;;;20.54;100.00
60583;BME280;46415;47.536;19.066;2023-07-30T10:59:56;-18787.91;;;20.64;100.00
60583;BME280;46415;47.536;19.066;2023-07-30T11:02:59;-18794.69;;;20.90;100.00
60583;BME280;46415;47.536;19.066;2023-07-30T11:06:02;-18797.66;;;21.01;100.00
60583;BME280;46415;47.536;19.066;2023-07-30T11:09:05;-18799.72;;;21.08;100.00
60583;BME280;46415;47.536;19.066;2023-07-30T11:12:08;-18801.06;;;21.13;100.00
60583;BME280;46415;47.536;19.066;2023-07-30T11:15:11;-18803.38;;;21.22;100.00
60583;BME280;46415;47.536;19.066;2023-07-30T11:18:13;-18804.47;;;21.26;100.00
60583;BME280;46415;47.536;19.066;2023-07-30T11:21:17;-18804.19;;;21.25;100.00
60583;BME280;46415;47.536;19.066;2023-07-30T11:24:20;-18802.28;;;21.18;100.00
60583;BME280;46415;47.536;19.066;2023-07-30T11:27:23;-18797.25;;;20.99;100.00
60583;BME280;46415;47.536;19.066;2023-07-30T11:30:26;-18793.19;;;20.84;100.00
60583;BME280;46415;47.536;19.066;2023-07-30T11:33:31;-18793.06;;;20.84;100.00
60583;BME280;46415;47.536;19.066;2023-07-30T11:36:34;-18792.50;;;20.82;100.00
60583;BME280;46415;47.536;19.066;2023-07-30T11:39:36;-18793.34;;;20.85;100.00
60583;BME280;46415;47.536;19.066;2023-07-30T11:42:39;-18795.22;;;20.92;100.00
60583;BME280;46415;47.536;19.066;2023-07-30T11:45:45;-18800.09;;;21.10;100.00
60583;BME280;46415;47.536;19.066;2023-07-30T11:48:48;-18806.75;;;21.35;100.00
60583;BME280;46415;47.536;19.066;2023-07-30T11:51:52;-18811.50;;;21.52;100.00
60583;BME280;46415;47.536;19.066;2023-07-30T11:55:06;-18818.28;;;21.78;100.00
60583;BME280;46415;47.536;19.066;2023-07-30T11:58:09;-18822.91;;;21.95;100.00
60583;BME280;46415;47.536;19.066;2023-07-30T12:01:12;-18821.81;;;21.91;100.00
60583;BME280;46415;47.536;19.066;2023-07-30T12:04:15;-18822.91;;;21.95;100.00
60583;BME280;46415;47.536;19.066;2023-07-30T12:07:23;-18827.78;;;22.13;100.00
60583;BME280;46415;47.536;19.066;2023-07-30T12:10:27;-18830.88;;;22.25;100.00
60583;BME280;46415;47.536;19.066;2023-07-30T12:13:29;-18832.66;;;22.31;100.00
60583;BME280;46415;47.536;19.066;2023-07-30T12:16:32;-18834.81;;;22.39;100.00
60583;BME280;46415;47.536;19.066;2023-07-30T12:19:35;-18834.53;;;22.38;100.00
60583;BME280;46415;47.536;19.066;2023-07-30T12:22:38;-18835.22;;;22.41;100.00
60583;BME280;46415;47.536;19.066;2023-07-30T12:25:41;-18836.97;;;22.48;100.00
60583;BME280;46415;47.536;19.066;2023-07-30T12:28:43;-18833.72;;;22.35;100.00
60583;BME280;46415;47.536;19.066;2023-07-30T12:31:46;-18831.56;;;22.27;100.00
60583;BME280;46415;47.536;19.066;2023-07-30T12:34:49;-18828.59;;;22.16;100.00
60583;BME280;46415;47.536;19.066;2023-07-30T12:37:52;-18822.75;;;21.94;100.00
60583;BME280;46415;47.536;19.066;2023-07-30T12:40:54;-18819.38;;;21.82;100.00
60583;BME280;46415;47.536;19.066;2023-07-30T12:43:57;-18813.94;;;21.62;100.00
60583;BME280;46415;47.536;19.066;2023-07-30T12:47:00;-18800.38;;;21.11;100.00
60583;BME280;46415;47.536;19.066;2023-07-30T12:50:02;-18799.44;;;21.07;100.00
60583;BME280;46415;47.536;19.066;2023-07-30T12:53:05;-18800.25;;;21.10;100.00
60583;BME280;46415;47.536;19.066;2023-07-30T12:56:08;-18803.91;;;21.24;100.00
60583;BME280;46415;47.536;19.066;2023-07-30T12:59:10;-18806.09;;;21.32;100.00
60583;BME280;46415;47.536;19.066;2023-07-30T13:02:13;-18811.09;;;21.51;100.00
60583;BME280;46415;47.536;19.066;2023-07-30T13:05:16;-18814.47;;;21.64;100.00
60583;BME280;46415;47.536;19.066;2023-07-30T13:08:18;-18818.00;;;21.77;100.00
60583;BME280;46415;47.536;19.066;2023-07-30T13:11:21;-18824.94;;;22.03;100.00
60583;BME280;46415;47.536;19.066;2023-07-30T13:14:23;-18834.41;;;22.38;100.00
60583;BME280;46415;47.536;19.066;2023-07-30T13:17:26;-18837.78;;;22.51;100.00
60583;BME280;46415;47.536;19.066;2023-07-30T13:20:29;-18845.25;;;22.78;100.00
60583;BME280;46415;47.536;19.066;2023-07-30T13:23:33;-18855.00;;;23.15;100.00
60583;BME280;46415;47.536;19.066;2023-07-30T13:26:35;-18857.56;;;23.25;100.00
60583;BME280;46415;47.536;19.066;2023-07-30T13:29:38;-18864.59;;;23.51;100.00
60583;BME280;46415;47.536;19.066;2023-07-30T13:32:40;-18858.91;;;23.30;100.00
60583;BME280;46415;47.536;19.066;2023-07-30T13:35:44;-18863.78;;;23.48;100.00
60583;BME280;46415;47.536;19.066;2023-07-30T13:38:46;-18868.66;;;23.66;100.00
60583;BME280;46415;47.536;19.066;2023-07-30T13:41:49;-18870.69;;;23.74;100.00
60583;BME280;46415;47.536;19.066;2023-07-30T13:44:51;-18869.75;;;23.70;100.00
60583;BME280;46415;47.536;19.066;2023-07-30T13:47:54;-18868.13;;;23.64;100.00
60583;BME280;46415;47.536;19.066;2023-07-30T13:50:57;-18866.50;;;23.58;100.00
60583;BME280;46415;47.536;19.066;2023-07-30T13:54:00;-18873.25;;;23.83;100.00
60583;BME280;46415;47.536;19.066;2023-07-30T13:57:03;-18883.53;;;24.22;100.00
60583;BME280;46415;47.536;19.066;2023-07-30T14:00:07;-18886.25;;;24.32;99.91
60583;BME280;46415;47.536;19.066;2023-07-30T14:03:10;-18882.31;;;24.17;100.00
60583;BME280;46415;47.536;19.066;2023-07-30T14:06:13;-18886.78;;;24.34;99.83
60583;BME280;46415;47.536;19.066;2023-07-30T14:09:16;-18884.09;;;24.24;98.07
60583;BME280;46415;47.536;19.066;2023-07-30T14:12:18;-18890.03;;;24.46;98.28
60583;BME280;46415;47.536;19.066;2023-07-30T14:15:21;-18890.56;;;24.48;96.79
60583;BME280;46415;47.536;19.066;2023-07-30T14:18:24;-18887.31;;;24.36;99.99
60583;BME280;46415;47.536;19.066;2023-07-30T14:21:28;-18894.91;;;24.64;96.46
60583;BME280;46415;47.536;19.066;2023-07-30T14:24:30;-18901.25;;;24.88;95.49
60583;BME280;46415;47.536;19.066;2023-07-30T14:27:33;-18905.44;;;25.04;96.24
60583;BME280;46415;47.536;19.066;2023-07-30T14:30:35;-18906.78;;;25.09;93.13
60583;BME280;46415;47.536;19.066;2023-07-30T14:33:38;-18912.19;;;25.29;90.05
60583;BME280;46415;47.536;19.066;2023-07-30T14:36:40;-18912.19;;;25.29;87.56
60583;BME280;46415;47.536;19.066;2023-07-30T14:39:43;-18919.47;;;25.56;86.40
60583;BME280;46415;47.536;19.066;2023-07-30T14:42:46;-18927.31;;;25.86;86.31
60583;BME280;46415;47.536;19.066;2023-07-30T14:45:49;-18937.97;;;26.26;84.35
60583;BME280;46415;47.536;19.066;2023-07-30T14:48:53;-18942.41;;;26.42;80.91
60583;BME280;46415;47.536;19.066;2023-07-30T14:51:55;-18952.94;;;26.82;79.78
60583;BME280;46415;47.536;19.066;2023-07-30T14:54:58;-18951.44;;;26.76;79.76
60583;BME280;46415;47.536;19.066;2023-07-30T14:58:01;-18960.50;;;27.10;77.16
60583;BME280;46415;47.536;19.066;2023-07-30T15:01:05;-18972.09;;;27.54;78.25
60583;BME280;46415;47.536;19.066;2023-07-30T15:04:08;-18984.19;;;27.99;74.65
60583;BME280;46415;47.536;19.066;2023-07-30T15:07:10;-18993.63;;;28.35;70.26
60583;BME280;46415;47.536;19.066;2023-07-30T15:10:13;-19009.63;;;28.95;68.79
60583;BME280;46415;47.536;19.066;2023-07-30T15:13:15;-19022.00;;;29.42;64.52
60583;BME280;46415;47.536;19.066;2023-07-30T15:16:18;-19018.91;;;29.30;61.12
60583;BME280;46415;47.536;19.066;2023-07-30T15:19:22;-19064.72;;;31.03;55.92
60583;BME280;46415;47.536;19.066;2023-07-30T15:22:24;-19139.72;;;33.86;48.61
60583;BME280;46415;47.536;19.066;2023-07-30T15:25:27;-19193.16;;;35.89;42.38
60583;BME280;46415;47.536;19.066;2023-07-30T15:28:29;-19226.88;;;37.17;38.89
60583;BME280;46415;47.536;19.066;2023-07-30T15:31:32;-19241.38;;;37.72;36.58
60583;BME280;46415;47.536;19.066;2023-07-30T15:34:35;-19238.84;;;37.63;36.61
60583;BME280;46415;47.536;19.066;2023-07-30T15:37:37;-19184.88;;;35.57;38.49
60583;BME280;46415;47.536;19.066;2023-07-30T15:40:40;-19185.56;;;35.60;38.32
60583;BME280;46415;47.536;19.066;2023-07-30T15:43:45;-19121.13;;;33.16;43.46